Time;durP1;ratioP1;P1;durP2;ratioP2;P2;SDS_P1;SDS_P2;PMS_P1;PMS_P2;Temp;Humidity;BMP_temperature;BMP_pressure;BME280_temperature;BME280_humidity;BME280_pressure;Samples;Min_cycle;Max_cycle;Signal;HPM_P1;HPM_P2
2023/09/30 00:02:27;;;;;;;17.17;8.50;;;;;;;18.10;62.59;100336.22;4204101;28;20654;-69
2023/09/30 00:04:54;;;;;;;18.20;8.17;;;;;;;18.14;61.98;100335.63;4195580;28;23070;-69
2023/09/30 00:07:22;;;;;;;17.93;8.50;;;;;;;18.13;62.39;100333.09;4205323;28;21248;-69
2023/09/30 00:09:49;;;;;;;18.37;8.40;;;;;;;18.15;62.31;100336.50;4197741;28;20326;-71
2023/09/30 00:12:15;;;;;;;18.77;8.10;;;;;;;18.26;61.94;100335.94;4209210;28;20272;-71
2023/09/30 00:14:42;;;;;;;17.83;8.33;;;;;;;18.02;62.66;100332.59;4201693;28;21773;-69
2023/09/30 00:17:09;;;;;;;17.43;8.03;;;;;;;18.07;62.54;100331.16;4200706;28;20339;-69
2023/09/30 00:19:37;;;;;;;23.50;8.33;;;;;;;18.20;62.06;100326.59;4204162;28;21802;-70
2023/09/30 00:22:04;;;;;;;26.20;8.20;;;;;;;18.17;62.17;100335.25;4205064;28;20249;-70
2023/09/30 00:24:30;;;;;;;15.70;7.90;;;;;;;18.29;61.75;100334.66;4203209;28;20267;-69
2023/09/30 00:26:57;;;;;;;15.83;7.87;;;;;;;18.28;61.79;100331.09;4199131;28;20963;-69
2023/09/30 00:29:23;;;;;;;17.90;7.70;;;;;;;18.30;61.68;100329.00;4197602;28;23698;-71
2023/09/30 00:31:50;;;;;;;17.23;8.23;;;;;;;18.19;62.14;100316.72;4200563;28;20303;-68
2023/09/30 00:34:16;;;;;;;16.50;8.10;;;;;;;18.29;61.77;100324.56;4194023;28;20445;-69
2023/09/30 00:36:43;;;;;;;16.93;8.53;;;;;;;18.27;61.88;100318.44;4207651;28;20228;-70
2023/09/30 00:39:10;;;;;;;15.70;8.10;;;;;;;18.17;62.16;100316.06;4208183;28;22007;-70
2023/09/30 00:41:39;;;;;;;20.77;8.37;;;;;;;18.16;62.10;100322.59;4209053;28;22938;-69
2023/09/30 00:44:08;;;;;;;18.90;8.17;;;;;;;18.23;62.02;100333.59;4187651;28;21546;-69
2023/09/30 00:46:39;;;;;;;17.73;8.17;;;;;;;18.25;61.82;100323.25;4203759;28;20241;-70
2023/09/30 00:49:06;;;;;;;16.70;8.23;;;;;;;18.24;61.97;100324.31;4204864;28;20718;-69
2023/09/30 00:51:33;;;;;;;19.30;8.73;;;;;;;18.18;62.19;100322.38;4193515;28;20306;-69
2023/09/30 00:54:01;;;;;;;20.27;8.40;;;;;;;18.15;62.50;100320.88;4206730;28;22242;-69
2023/09/30 00:56:30;;;;;;;16.27;8.20;;;;;;;18.11;62.43;100319.63;4202080;28;20605;-73
2023/09/30 00:58:57;;;;;;;16.33;7.87;;;;;;;18.28;62.24;100317.41;4203276;28;20304;-70
2023/09/30 01:01:23;;;;;;;22.43;9.00;;;;;;;18.10;62.68;100325.28;4183310;28;20237;-69
2023/09/30 01:03:50;;;;;;;19.17;8.30;;;;;;;18.20;62.46;100326.59;4208928;28;20349;-70
2023/09/30 01:06:17;;;;;;;16.40;8.00;;;;;;;18.07;63.08;100326.53;4203466;28;20325;-70
2023/09/30 01:08:44;;;;;;;17.90;8.60;;;;;;;18.19;62.65;100337.78;4199764;28;20263;-71
2023/09/30 01:11:12;;;;;;;18.43;8.33;;;;;;;18.14;62.95;100330.16;4204232;28;21440;-70
2023/09/30 01:13:39;;;;;;;16.80;8.43;;;;;;;18.20;63.17;100340.31;4202519;28;21412;-69
2023/09/30 01:16:09;;;;;;;22.43;9.57;;;;;;;18.13;63.79;100344.88;4202715;28;20342;-69
2023/09/30 01:18:37;;;;;;;18.00;8.33;;;;;;;18.11;64.32;100330.56;4212599;28;20243;-70
2023/09/30 01:21:06;;;;;;;19.73;9.23;;;;;;;18.06;64.80;100324.81;4208564;28;20256;-70
2023/09/30 01:23:35;;;;;;;15.77;8.00;;;;;;;17.96;65.43;100329.81;4204959;28;20267;-70
2023/09/30 01:26:09;;;;;;;16.27;7.97;;;;;;;17.99;64.78;100323.94;4205836;28;20622;-70
2023/09/30 01:28:36;;;;;;;17.40;8.63;;;;;;;17.85;65.90;100321.06;4203296;28;22226;-70
2023/09/30 01:31:02;;;;;;;20.90;8.93;;;;;;;17.80;66.65;100320.81;4207171;28;23478;-71
2023/09/30 01:33:29;;;;;;;24.27;8.50;;;;;;;17.90;66.29;100313.09;4203968;28;22465;-69
2023/09/30 01:35:56;;;;;;;17.43;9.00;;;;;;;17.88;66.15;100314.34;4204445;28;22186;-70
2023/09/30 01:38:22;;;;;;;17.53;8.93;;;;;;;17.61;67.28;100314.13;4198757;28;20243;-71
2023/09/30 01:40:49;;;;;;;23.60;9.33;;;;;;;17.76;66.73;100310.47;4201156;28;20248;-70
2023/09/30 01:43:16;;;;;;;16.73;9.13;;;;;;;17.88;66.17;100301.50;4199852;28;20244;-69
2023/09/30 01:45:44;;;;;;;19.70;8.57;;;;;;;17.91;65.84;100303.00;4211364;28;22443;-68
2023/09/30 01:48:11;;;;;;;18.03;8.83;;;;;;;17.99;65.60;100299.28;4207510;28;21255;-71
2023/09/30 01:50:38;;;;;;;17.17;8.50;;;;;;;17.94;65.84;100307.22;4206659;28;20236;-68
2023/09/30 01:53:06;;;;;;;18.70;8.70;;;;;;;18.16;64.69;100310.78;4209281;28;20305;-70
2023/09/30 01:55:34;;;;;;;19.03;8.70;;;;;;;17.97;65.37;100307.69;4211103;28;20267;-68
2023/09/30 01:58:01;;;;;;;16.30;8.17;;;;;;;17.89;65.66;100295.00;4209217;28;20305;-69
2023/09/30 02:00:29;;;;;;;17.87;8.03;;;;;;;18.00;65.66;100298.25;4196817;28;21775;-69
2023/09/30 02:02:56;;;;;;;18.73;8.23;;;;;;;17.88;65.75;100301.50;4205322;28;21274;-71
2023/09/30 02:05:23;;;;;;;16.43;8.87;;;;;;;17.88;66.22;100300.66;4208354;28;20237;-69
2023/09/30 02:07:50;;;;;;;19.73;8.50;;;;;;;17.94;65.76;100294.38;4208824;28;20366;-71
2023/09/30 02:10:21;;;;;;;18.17;7.90;;;;;;;18.09;65.14;100296.22;4199214;28;20756;-69
2023/09/30 02:12:47;;;;;;;16.70;8.30;;;;;;;18.02;65.25;100288.75;4209372;28;20615;-71
2023/09/30 02:15:15;;;;;;;20.13;8.47;;;;;;;18.00;65.43;100295.50;4204256;28;20320;-69
2023/09/30 02:17:45;;;;;;;19.07;8.83;;;;;;;18.04;65.16;100294.91;4194576;28;21094;-70
2023/09/30 02:20:15;;;;;;;16.03;8.33;;;;;;;17.90;65.97;100293.09;4206131;28;20232;-70
2023/09/30 02:22:44;;;;;;;15.20;7.93;;;;;;;17.92;65.83;100291.00;4205807;28;20326;-69
2023/09/30 02:25:12;;;;;;;17.80;8.53;;;;;;;17.96;65.54;100291.47;4202898;28;20243;-72
2023/09/30 02:27:41;;;;;;;20.57;8.70;;;;;;;18.03;64.86;100304.16;4206903;28;23090;-71
2023/09/30 02:30:10;;;;;;;25.00;8.20;;;;;;;18.10;64.83;100300.63;4203037;28;21248;-70
2023/09/30 02:32:40;;;;;;;15.83;8.03;;;;;;;17.96;65.33;100299.69;4207911;28;20236;-69
2023/09/30 02:35:10;;;;;;;20.13;8.43;;;;;;;17.78;65.82;100303.72;4207685;28;20229;-70
2023/09/30 02:37:37;;;;;;;15.77;8.90;;;;;;;17.93;65.53;100300.03;4204218;28;20241;-70
2023/09/30 02:40:10;;;;;;;17.43;8.70;;;;;;;17.93;65.03;100300.91;4198100;28;20311;-70
2023/09/30 02:42:38;;;;;;;18.60;8.47;;;;;;;17.95;65.07;100300.69;4205402;28;20238;-71
2023/09/30 02:45:07;;;;;;;17.03;8.37;;;;;;;17.96;64.83;100286.00;4207193;28;22801;-72
2023/09/30 02:47:35;;;;;;;17.97;8.17;;;;;;;17.96;64.75;100289.56;4201142;28;20315;-70
2023/09/30 02:50:02;;;;;;;18.50;9.10;;;;;;;18.04;64.73;100297.63;4200050;28;20474;-70
2023/09/30 02:52:29;;;;;;;20.57;8.83;;;;;;;17.99;64.75;100299.28;4204785;28;20359;-69
2023/09/30 02:54:57;;;;;;;18.47;8.30;;;;;;;18.03;64.61;100297.84;4203439;28;20229;-70
2023/09/30 02:57:24;;;;;;;17.63;8.43;;;;;;;17.94;64.92;100291.63;4199249;28;22078;-71
2023/09/30 02:59:54;;;;;;;22.30;8.97;;;;;;;17.94;64.72;100299.00;4210619;28;20620;-70
2023/09/30 03:02:23;;;;;;;17.73;8.97;;;;;;;17.83;65.18;100289.44;4209808;28;20236;-70
2023/09/30 03:04:51;;;;;;;16.37;8.50;;;;;;;17.79;65.09;100282.69;4208168;28;20808;-69
2023/09/30 03:07:19;;;;;;;19.90;8.10;;;;;;;17.87;65.25;100294.34;4197911;28;20619;-70
2023/09/30 03:09:46;;;;;;;19.97;8.47;;;;;;;17.81;65.13;100291.53;4200980;28;20241;-70
2023/09/30 03:12:14;;;;;;;17.27;8.43;;;;;;;17.87;65.02;100288.84;4205214;28;21126;-70
2023/09/30 03:14:40;;;;;;;19.83;8.67;;;;;;;17.98;64.59;100279.28;4212767;28;20671;-70
2023/09/30 03:17:11;;;;;;;20.50;8.33;;;;;;;17.98;65.00;100290.22;4202826;28;20817;-69
2023/09/30 03:19:38;;;;;;;19.00;8.30;;;;;;;17.98;65.13;100286.63;4209703;28;20237;-69
2023/09/30 03:22:10;;;;;;;16.40;8.37;;;;;;;18.00;65.60;100282.66;4197295;28;20574;-70
2023/09/30 03:24:39;;;;;;;14.60;7.63;;;;;;;18.08;65.53;100286.28;4198856;28;22083;-70
2023/09/30 03:27:07;;;;;;;18.50;9.00;;;;;;;17.90;66.66;100282.97;4205685;28;20244;-69
2023/09/30 03:29:38;;;;;;;15.57;8.10;;;;;;;17.92;66.41;100280.03;4200053;28;20233;-71
2023/09/30 03:32:05;;;;;;;18.50;8.63;;;;;;;17.88;66.73;100274.13;4201694;28;21071;-69
2023/09/30 03:34:32;;;;;;;18.30;8.33;;;;;;;17.90;67.13;100279.38;4206739;28;20662;-72
2023/09/30 03:36:58;;;;;;;15.67;8.77;;;;;;;17.84;67.29;100277.47;4196778;28;21865;-69
2023/09/30 03:39:27;;;;;;;17.40;8.13;;;;;;;17.89;67.62;100275.81;4193641;28;21559;-70
2023/09/30 03:41:56;;;;;;;19.77;8.43;;;;;;;17.67;67.91;100265.97;4201048;28;20260;-70
2023/09/30 03:44:25;;;;;;;16.53;8.83;;;;;;;17.63;68.18;100267.38;4215453;28;21176;-71
2023/09/30 03:46:52;;;;;;;22.80;9.50;;;;;;;17.77;68.02;100268.34;4202447;28;20236;-71
2023/09/30 03:49:22;;;;;;;16.07;9.13;;;;;;;17.67;68.65;100269.53;4206710;28;20380;-69
2023/09/30 03:51:50;;;;;;;26.23;8.70;;;;;;;17.64;68.50;100272.66;4205310;28;20594;-69
2023/09/30 03:54:20;;;;;;;19.17;8.60;;;;;;;17.72;68.61;100277.16;4205720;28;20229;-73
2023/09/30 03:56:47;;;;;;;16.87;9.47;;;;;;;17.79;68.81;100274.47;4193748;28;22281;-70
2023/09/30 03:59:15;;;;;;;17.60;8.53;;;;;;;17.75;68.60;100276.75;4203001;28;20307;-68
2023/09/30 04:01:42;;;;;;;17.10;8.30;;;;;;;17.72;68.78;100277.16;4207339;28;20285;-69
2023/09/30 04:04:09;;;;;;;25.17;8.60;;;;;;;17.76;67.73;100283.06;4200197;28;20660;-69
2023/09/30 04:06:38;;;;;;;14.73;8.03;;;;;;;17.72;67.94;100282.63;4195990;28;20253;-69
2023/09/30 04:09:11;;;;;;;19.37;8.13;;;;;;;17.74;67.28;100275.06;4207786;28;20233;-70
2023/09/30 04:11:38;;;;;;;18.97;8.40;;;;;;;17.73;67.54;100292.53;4198155;28;20240;-69
2023/09/30 04:14:08;;;;;;;18.27;8.70;;;;;;;17.78;67.40;100281.00;4201276;28;20601;-69
2023/09/30 04:16:37;;;;;;;18.87;7.73;;;;;;;17.70;67.36;100273.75;4207314;28;20228;-69
2023/09/30 04:19:04;;;;;;;22.27;9.23;;;;;;;17.77;67.58;100279.31;4198634;28;20280;-69
2023/09/30 04:21:34;;;;;;;17.80;8.13;;;;;;;17.67;67.52;100275.00;4196816;28;22432;-70
2023/09/30 04:24:01;;;;;;;14.43;7.60;;;;;;;17.67;67.49;100276.91;4203114;28;20248;-69
2023/09/30 04:26:27;;;;;;;21.53;8.23;;;;;;;17.75;67.20;100271.25;4200178;28;20483;-69
2023/09/30 04:28:54;;;;;;;22.20;8.70;;;;;;;17.72;67.15;100277.16;4185871;28;20623;-70
2023/09/30 04:31:23;;;;;;;20.37;8.40;;;;;;;17.73;67.34;100287.06;4204225;28;20245;-70
2023/09/30 04:33:53;;;;;;;15.77;7.97;;;;;;;17.67;67.46;100277.75;4209778;28;20237;-41
2023/09/30 04:36:22;;;;;;;13.63;8.03;;;;;;;17.70;67.17;100269.16;4203793;28;20800;-69
2023/09/30 04:38:49;;;;;;;18.10;8.37;;;;;;;17.64;67.65;100274.56;4199939;28;20266;-72
2023/09/30 04:41:16;;;;;;;18.93;8.33;;;;;;;17.73;67.03;100267.91;4197629;28;21994;-72
2023/09/30 04:43:43;;;;;;;15.67;8.53;;;;;;;17.71;66.92;100259.88;4203764;28;20300;-73
2023/09/30 04:46:12;;;;;;;17.60;8.77;;;;;;;17.73;67.02;100276.13;4194778;28;20624;-71
2023/09/30 04:48:40;;;;;;;17.67;8.40;;;;;;;17.82;66.99;100266.72;4202069;28;20294;-71
2023/09/30 04:51:08;;;;;;;15.13;7.90;;;;;;;17.74;67.06;100264.94;4204366;28;20415;-70
2023/09/30 04:53:36;;;;;;;18.20;8.10;;;;;;;17.77;66.93;100265.59;4195551;28;20894;-71
2023/09/30 04:56:03;;;;;;;21.53;8.27;;;;;;;17.79;67.50;100266.25;4193924;28;20580;-70
2023/09/30 04:58:30;;;;;;;18.93;8.77;;;;;;;17.66;68.45;100262.34;4220083;28;20236;-72
2023/09/30 05:00:57;;;;;;;23.03;8.47;;;;;;;17.42;69.39;100269.13;4193686;28;20570;-67
2023/09/30 05:03:25;;;;;;;18.60;9.53;;;;;;;17.25;70.69;100272.13;4199378;28;20239;-67
2023/09/30 05:05:55;;;;;;;17.10;8.40;;;;;;;17.22;71.08;100258.81;4207343;28;21661;-69
2023/09/30 05:08:23;;;;;;;16.93;7.50;;;;;;;17.19;70.23;100266.56;4192605;28;20236;-68
2023/09/30 05:10:50;;;;;;;19.37;7.80;;;;;;;17.19;70.22;100263.81;4200826;28;20647;-67
2023/09/30 05:13:17;;;;;;;15.07;7.53;;;;;;;17.21;70.68;100269.97;4210784;28;20239;-67
2023/09/30 05:15:44;;;;;;;23.23;8.53;;;;;;;17.16;70.46;100275.19;4208904;28;23084;-67
2023/09/30 05:18:10;;;;;;;22.33;8.30;;;;;;;17.33;69.99;100271.16;4188797;28;20234;-67
2023/09/30 05:20:38;;;;;;;19.17;8.13;;;;;;;17.31;69.85;100272.38;4217695;28;20282;-67
2023/09/30 05:23:07;;;;;;;23.80;8.13;;;;;;;17.31;70.02;100272.38;4209785;28;20268;-67
2023/09/30 05:25:36;;;;;;;21.67;8.23;;;;;;;17.44;69.93;100275.25;4204870;28;22254;-66
2023/09/30 05:28:04;;;;;;;20.87;8.63;;;;;;;17.46;69.97;100288.72;4207798;28;20656;-69
2023/09/30 05:30:30;;;;;;;29.20;8.27;;;;;;;17.54;69.55;100281.22;4209839;28;20237;-69
2023/09/30 05:32:58;;;;;;;20.60;8.80;;;;;;;17.48;69.55;100286.66;4205644;28;21564;-69
2023/09/30 05:35:25;;;;;;;21.00;7.90;;;;;;;17.53;69.39;100284.97;4192349;28;20308;-69
2023/09/30 05:37:53;;;;;;;21.77;7.80;;;;;;;17.62;69.14;100293.94;4205775;28;21569;-69
2023/09/30 05:40:25;;;;;;;15.00;7.63;;;;;;;17.57;69.81;100294.50;4213389;28;20243;-68
2023/09/30 05:42:57;;;;;;;20.23;8.20;;;;;;;17.63;69.91;100303.84;4202829;28;20240;-66
2023/09/30 05:45:26;;;;;;;24.73;9.90;;;;;;;17.57;71.04;100305.47;4200645;28;26786;-71
2023/09/30 05:47:56;;;;;;;17.30;8.57;;;;;;;17.65;70.54;100320.88;4205070;28;20236;-69
2023/09/30 05:50:26;;;;;;;21.90;7.50;;;;;;;17.60;71.30;100317.91;4203595;28;20230;-69
2023/09/30 05:52:58;;;;;;;16.30;8.67;;;;;;;17.56;72.62;100322.09;4202419;28;20237;-65
2023/09/30 05:55:25;;;;;;;16.87;9.10;;;;;;;17.58;73.17;100323.59;4215126;28;20750;-66
2023/09/30 05:57:53;;;;;;;20.93;9.33;;;;;;;17.58;73.54;100328.19;4212842;28;21382;-65
2023/09/30 06:00:22;;;;;;;24.37;9.13;;;;;;;17.45;75.75;100330.81;4208318;28;20703;-52
2023/09/30 06:02:51;;;;;;;21.90;9.73;;;;;;;17.10;77.92;100332.34;4199109;28;22133;-65
2023/09/30 06:05:26;;;;;;;20.00;8.77;;;;;;;16.89;78.27;100327.66;4215493;28;20953;-66
2023/09/30 06:07:54;;;;;;;26.50;10.57;;;;;;;16.81;79.11;100335.97;4214289;28;20240;-67
2023/09/30 06:10:21;;;;;;;27.77;10.47;;;;;;;16.81;79.54;100335.97;4209239;28;20262;-69
2023/09/30 06:12:48;;;;;;;23.50;9.30;;;;;;;16.79;79.80;100336.16;4202084;28;20271;-67
2023/09/30 06:15:18;;;;;;;20.30;9.37;;;;;;;16.67;81.24;100353.22;4205344;28;20233;-68
2023/09/30 06:17:46;;;;;;;31.60;11.87;;;;;;;16.65;81.91;100353.44;4219249;28;21493;-66
2023/09/30 06:20:17;;;;;;;15.17;8.17;;;;;;;16.53;83.63;100353.06;4217291;28;20250;-67
2023/09/30 06:22:45;;;;;;;18.40;9.20;;;;;;;16.50;84.83;100356.16;4229295;28;20248;-65
2023/09/30 06:25:13;;;;;;;25.53;9.67;;;;;;;16.34;86.72;100353.59;4208307;28;20236;-70
2023/09/30 06:27:39;;;;;;;22.80;10.10;;;;;;;16.18;88.39;100360.09;4215698;28;23627;-70
2023/09/30 06:30:06;;;;;;;22.83;9.87;;;;;;;16.10;89.60;100356.41;4207661;28;20532;-70
2023/09/30 06:32:33;;;;;;;22.20;11.23;;;;;;;16.05;91.16;100345.19;4200463;28;20230;-70
2023/09/30 06:35:00;;;;;;;27.83;9.93;;;;;;;16.09;91.42;100348.38;4207943;28;21249;-69
2023/09/30 06:37:29;;;;;;;22.67;11.20;;;;;;;16.09;92.75;100351.97;4218354;28;25384;-69
2023/09/30 06:39:56;;;;;;;31.57;12.57;;;;;;;16.15;92.36;100356.69;4210041;28;20229;-70
2023/09/30 06:42:23;;;;;;;18.00;10.83;;;;;;;16.08;92.36;100354.91;4208063;28;20539;-72
2023/09/30 06:44:50;;;;;;;22.50;11.63;;;;;;;16.03;94.35;100366.38;4214106;28;20610;-69
2023/09/30 06:47:17;;;;;;;22.13;11.90;;;;;;;15.97;94.46;100365.22;4204723;28;20635;-72
2023/09/30 06:49:43;;;;;;;20.60;11.47;;;;;;;15.85;94.95;100372.19;4212171;28;23226;-70
2023/09/30 06:52:10;;;;;;;23.50;11.37;;;;;;;15.80;96.00;100372.69;4204933;28;20335;-69
2023/09/30 06:54:36;;;;;;;25.03;13.00;;;;;;;15.79;95.92;100373.72;4192738;28;21654;-68
2023/09/30 06:57:04;;;;;;;19.80;12.60;;;;;;;15.83;96.45;100374.22;4210630;28;20362;-75
2023/09/30 06:59:32;;;;;;;24.60;13.27;;;;;;;15.88;96.52;100376.41;4223819;28;20384;-71
2023/09/30 07:01:58;;;;;;;22.43;13.23;;;;;;;15.92;96.64;100375.88;4213663;28;20590;-70
2023/09/30 07:04:26;;;;;;;24.70;12.17;;;;;;;16.03;96.74;100385.50;4199160;28;20230;-73
2023/09/30 07:06:53;;;;;;;23.67;13.63;;;;;;;16.04;96.69;100383.59;4205314;28;20599;-71
2023/09/30 07:09:20;;;;;;;24.77;13.63;;;;;;;16.10;96.23;100386.44;4211567;28;20235;-69
2023/09/30 07:11:49;;;;;;;22.40;13.40;;;;;;;16.07;96.86;100391.44;4211927;28;22431;-70
2023/09/30 07:14:16;;;;;;;27.70;14.30;;;;;;;16.08;96.97;100387.66;4200099;28;20238;-71
2023/09/30 07:16:43;;;;;;;27.97;13.37;;;;;;;16.09;96.71;100392.06;4240970;28;20276;-68
2023/09/30 07:19:09;;;;;;;28.47;14.47;;;;;;;16.12;97.17;100395.31;4213207;28;20595;-59
2023/09/30 07:21:37;;;;;;;26.30;15.10;;;;;;;16.13;97.81;100398.88;4217780;28;22290;-61
2023/09/30 07:24:04;;;;;;;26.87;14.90;;;;;;;16.18;98.11;100387.41;4204748;28;25345;-75
2023/09/30 07:26:31;;;;;;;25.10;14.87;;;;;;;16.18;98.87;100401.91;4216905;28;20259;-68
2023/09/30 07:28:58;;;;;;;29.63;15.20;;;;;;;16.06;99.75;100398.75;4206531;28;20232;-70
2023/09/30 07:31:25;;;;;;;28.83;16.27;;;;;;;16.02;100.00;100405.63;4206756;28;20313;-70
2023/09/30 07:33:52;;;;;;;28.70;17.10;;;;;;;16.04;100.00;100402.72;4209055;28;25473;-71
2023/09/30 07:36:19;;;;;;;28.27;17.23;;;;;;;16.14;100.00;100398.69;4215791;28;20870;-70
2023/09/30 07:38:47;;;;;;;32.10;17.27;;;;;;;16.13;100.00;100404.34;4198333;28;21741;-70
2023/09/30 07:41:13;;;;;;;46.17;25.97;;;;;;;16.16;100.00;100403.97;4199358;28;20245;-72
2023/09/30 07:43:40;;;;;;;38.10;20.47;;;;;;;16.35;100.00;100402.59;4210026;28;20237;-66
2023/09/30 07:46:07;;;;;;;32.77;18.03;;;;;;;16.53;100.00;100406.84;4202980;28;21951;-67
2023/09/30 07:48:35;;;;;;;36.83;18.30;;;;;;;16.69;100.00;100406.66;4203919;28;21074;-70
2023/09/30 07:51:02;;;;;;;36.50;17.90;;;;;;;16.77;99.99;100401.09;4200795;28;20288;-66
2023/09/30 07:53:29;;;;;;;39.87;18.50;;;;;;;16.92;99.80;100402.97;4200528;28;20292;-64
2023/09/30 07:55:56;;;;;;;36.10;17.93;;;;;;;16.97;99.52;100403.28;4204985;28;20230;-66
2023/09/30 07:58:23;;;;;;;30.13;17.37;;;;;;;17.14;97.85;100390.25;4213716;28;20244;-65
2023/09/30 08:00:50;;;;;;;29.63;17.43;;;;;;;17.26;97.20;100401.53;4203469;28;20299;-66
2023/09/30 08:03:17;;;;;;;35.97;16.67;;;;;;;17.37;98.03;100402.94;4206986;28;20237;-67
2023/09/30 08:05:44;;;;;;;34.27;17.07;;;;;;;17.35;97.34;100405.00;4210764;28;20295;-65
2023/09/30 08:08:11;;;;;;;31.27;16.20;;;;;;;17.39;97.10;100409.03;4205356;28;20360;-68
2023/09/30 08:10:37;;;;;;;25.70;16.87;;;;;;;17.37;96.72;100408.41;4200473;28;20355;-66
2023/09/30 08:13:04;;;;;;;27.13;17.07;;;;;;;17.29;97.53;100411.25;4202552;28;20328;-68
2023/09/30 08:15:30;;;;;;;32.60;17.23;;;;;;;17.21;97.80;100404.00;4209818;28;20233;-67
2023/09/30 08:17:57;;;;;;;24.67;16.70;;;;;;;17.13;98.48;100412.31;4205669;28;20313;-67
2023/09/30 08:20:24;;;;;;;27.00;16.60;;;;;;;17.23;97.57;100410.97;4204420;28;20229;-67
2023/09/30 08:22:51;;;;;;;29.20;16.97;;;;;;;17.26;97.63;100415.19;4225456;28;20247;-68
2023/09/30 08:25:17;;;;;;;28.47;17.70;;;;;;;17.14;98.25;100411.28;4201402;28;20240;-67
2023/09/30 08:27:49;;;;;;;28.53;18.47;;;;;;;17.12;98.66;100427.88;4200177;28;20725;-65
2023/09/30 08:30:16;;;;;;;28.93;17.70;;;;;;;17.13;98.75;100407.72;4206623;28;25345;-68
2023/09/30 08:32:42;;;;;;;30.50;19.03;;;;;;;17.15;98.97;100412.97;4205943;28;20241;-67
2023/09/30 08:35:09;;;;;;;33.57;21.07;;;;;;;17.20;98.36;100408.63;4196867;28;20243;-67
2023/09/30 08:37:36;;;;;;;29.27;18.47;;;;;;;17.22;98.73;100409.28;4213046;28;20308;-69
2023/09/30 08:40:04;;;;;;;28.60;18.33;;;;;;;17.22;98.83;100414.75;4205959;28;20241;-68
2023/09/30 08:42:33;;;;;;;34.03;18.50;;;;;;;17.13;98.98;100420.53;4188778;28;20244;-69
2023/09/30 08:45:03;;;;;;;40.70;19.40;;;;;;;17.16;99.59;100415.50;4210320;28;20240;-67
2023/09/30 08:47:30;;;;;;;31.13;18.27;;;;;;;17.16;99.12;100415.50;4213092;28;20264;-69
2023/09/30 08:50:05;;;;;;;31.63;19.53;;;;;;;17.22;98.69;100417.47;4204918;28;20224;-67
2023/09/30 08:52:33;;;;;;;31.17;19.90;;;;;;;17.10;99.47;100428.09;4218426;28;20347;-68
2023/09/30 08:55:09;;;;;;;31.37;18.90;;;;;;;17.11;99.99;100429.75;4217608;28;21508;-67
2023/09/30 08:57:43;;;;;;;34.37;20.03;;;;;;;17.16;99.87;100434.66;4208967;28;24218;-67
2023/09/30 09:00:12;;;;;;;33.23;17.80;;;;;;;17.24;99.45;100430.97;4193729;28;20348;-68
2023/09/30 09:02:40;;;;;;;32.57;19.13;;;;;;;17.21;99.79;100440.44;4213065;28;21221;-68
2023/09/30 09:05:07;;;;;;;29.73;19.13;;;;;;;17.10;100.00;100443.63;4215106;28;20232;-68
2023/09/30 09:07:35;;;;;;;29.07;20.13;;;;;;;17.06;100.00;100437.69;4203212;28;20232;-67
2023/09/30 09:10:06;;;;;;;37.13;20.03;;;;;;;17.04;100.00;100449.88;4205736;28;22172;-68
2023/09/30 09:12:34;;;;;;;34.60;21.20;;;;;;;17.02;100.00;100451.94;4226227;28;23125;-68
2023/09/30 09:15:02;;;;;;;33.27;20.57;;;;;;;17.04;100.00;100458.91;4225279;28;21248;-69
2023/09/30 09:17:43;;;;;;;34.00;21.17;;;;;;;17.03;100.00;100457.22;4194857;28;20290;-70
2023/09/30 09:20:20;;;;;;;32.67;20.97;;;;;;;16.99;100.00;100453.16;4210305;28;20240;-68
2023/09/30 09:22:52;;;;;;;35.00;21.50;;;;;;;16.99;100.00;100457.81;4218589;28;20329;-71
2023/09/30 09:25:19;;;;;;;35.80;21.93;;;;;;;17.01;100.00;100455.72;4202564;28;20237;-68
2023/09/30 09:27:46;;;;;;;32.73;20.83;;;;;;;17.16;100.00;100452.97;4209239;28;20236;-68
2023/09/30 09:30:26;;;;;;;38.10;22.07;;;;;;;17.09;100.00;100452.88;4205181;28;20279;-68
2023/09/30 09:32:59;;;;;;;38.37;22.07;;;;;;;17.23;100.00;100457.47;4205699;28;20290;-67
2023/09/30 09:35:30;;;;;;;34.27;21.27;;;;;;;17.33;99.55;100440.78;4210023;28;20237;-69
2023/09/30 09:37:59;;;;;;;37.43;22.53;;;;;;;17.27;99.84;100457.94;4203689;28;21569;-69
2023/09/30 09:40:32;;;;;;;48.00;25.23;;;;;;;17.46;99.07;100461.13;4202892;28;20257;-69
2023/09/30 09:43:02;;;;;;;37.43;20.70;;;;;;;17.41;99.07;100465.28;4213338;28;20255;-67
2023/09/30 09:45:33;;;;;;;35.07;21.10;;;;;;;17.29;99.65;100475.03;4216643;28;20964;-68
2023/09/30 09:48:01;;;;;;;36.40;21.77;;;;;;;17.16;100.00;100470.22;4194788;28;20554;-69
2023/09/30 09:50:31;;;;;;;32.93;21.13;;;;;;;17.11;100.00;100479.00;4218555;28;20690;-70
2023/09/30 09:53:00;;;;;;;39.30;22.50;;;;;;;17.05;100.00;100473.44;4214419;28;20586;-46
2023/09/30 09:55:27;;;;;;;34.03;22.47;;;;;;;17.07;100.00;100483.16;4207874;28;21244;-44
2023/09/30 09:57:55;;;;;;;35.63;23.10;;;;;;;17.05;100.00;100479.75;4210508;28;20237;-44
2023/09/30 10:00:25;;;;;;;40.77;23.83;;;;;;;16.97;100.00;100482.56;4209569;28;20394;-44
2023/09/30 10:02:52;;;;;;;39.37;23.67;;;;;;;16.99;100.00;100488.72;4216429;28;20240;-41
2023/09/30 10:05:21;;;;;;;37.63;22.73;;;;;;;16.95;100.00;100490.16;4213518;28;20228;-45
2023/09/30 10:07:59;;;;;;;40.63;22.93;;;;;;;16.90;100.00;100489.81;4227929;28;20415;-73
2023/09/30 10:10:28;;;;;;;30.50;18.23;;;;;;;16.82;100.00;100500.84;4198083;28;20233;-73
2023/09/30 10:12:55;;;;;;;33.70;17.60;;;;;;;16.77;100.00;100493.19;4213662;28;23177;-73
2023/09/30 10:15:25;;;;;;;34.20;16.77;;;;;;;16.75;100.00;100503.47;4207164;28;20232;-71
2023/09/30 10:18:11;;;;;;;26.53;15.00;;;;;;;16.67;100.00;100509.03;4207815;28;21084;-68
2023/09/30 10:20:47;;;;;;;22.03;13.13;;;;;;;16.69;100.00;100512.44;4206319;28;20237;-67
2023/09/30 10:23:19;;;;;;;23.40;12.93;;;;;;;16.52;100.00;100514.44;4216538;28;20254;-68
2023/09/30 10:25:47;;;;;;;22.83;12.40;;;;;;;16.52;100.00;100528.97;4218972;28;20237;-65
2023/09/30 10:28:40;;;;;;;20.80;11.27;;;;;;;16.50;100.00;100522.84;4208071;28;20263;-67
2023/09/30 10:31:21;;;;;;;18.57;10.43;;;;;;;16.51;100.00;100529.13;4213182;28;20244;-67
2023/09/30 10:34:00;;;;;;;15.33;8.47;;;;;;;16.39;100.00;100539.69;4216893;28;20509;-65
2023/09/30 10:36:32;;;;;;;14.37;8.40;;;;;;;16.45;100.00;100547.13;4214319;28;21726;-65
2023/09/30 10:38:59;;;;;;;12.47;7.30;;;;;;;16.41;100.00;100543.06;4214015;28;20236;-67
2023/09/30 10:41:44;;;;;;;12.03;6.77;;;;;;;16.21;100.00;100553.63;4216475;28;20240;-67
2023/09/30 10:44:27;;;;;;;10.90;5.20;;;;;;;16.19;100.00;100550.25;4209501;28;21287;-69
2023/09/30 10:46:57;;;;;;;10.73;4.53;;;;;;;16.22;100.00;100556.19;4211687;28;20389;-67
2023/09/30 10:49:23;;;;;;;8.47;4.37;;;;;;;16.34;100.00;100564.81;4208215;28;20416;-68
2023/09/30 10:51:55;;;;;;;6.70;3.97;;;;;;;16.54;100.00;100565.16;4209909;28;23418;-66
2023/09/30 10:54:26;;;;;;;9.53;3.97;;;;;;;16.50;98.72;100566.56;4206509;28;20243;-68
2023/09/30 10:56:53;;;;;;;5.90;3.03;;;;;;;16.46;98.49;100578.91;4213173;28;20235;-69
2023/09/30 10:59:22;;;;;;;7.67;3.47;;;;;;;16.48;98.27;100582.28;4209931;28;20531;-66
2023/09/30 11:01:49;;;;;;;7.27;3.00;;;;;;;16.39;97.29;100592.44;4208584;28;20651;-67
2023/09/30 11:04:17;;;;;;;8.40;2.87;;;;;;;16.32;98.20;100592.28;4211568;28;20771;-66
2023/09/30 11:06:45;;;;;;;9.87;3.10;;;;;;;16.26;98.72;100595.75;4217522;28;20538;-67
2023/09/30 11:09:33;;;;;;;4.73;2.97;;;;;;;16.00;99.56;100593.34;4216558;28;21486;-70
2023/09/30 11:12:00;;;;;;;9.70;3.27;;;;;;;15.83;98.41;100601.63;4205416;28;20332;-68
2023/09/30 11:14:32;;;;;;;8.87;3.27;;;;;;;15.71;98.48;100607.66;4220715;28;21629;-69
2023/09/30 11:17:01;;;;;;;6.57;2.77;;;;;;;15.73;97.97;100600.09;4198296;28;20239;-68
2023/09/30 11:19:47;;;;;;;9.10;2.97;;;;;;;15.65;98.41;100606.47;4198811;28;20233;-68
2023/09/30 11:22:15;;;;;;;11.03;2.67;;;;;;;15.79;98.23;100613.03;4213088;28;20989;-66